CheckWX is a tool to help pilots better visualize weather data.  It is not intended as a substitute for an official pre-flight weather briefing.

17:19:03 UTC

SBCF TAF
Tancredo Neves International Airport
Belo Horizonte, Brazil
TAF SBCF 181000Z 1812/1912 13008KT CAVOK TX23/1817Z TN11/1908Z BECMG 1820/1822 03003KT 9999 FEW025 BECMG 1902/1904 27006KT CAVOK BECMG 1908/1910 19005KT RMK PCQ

Aug-18@
12:00 UTC

Aug-18 @ 12:00 UTC

Aug-18@
20:00 UTC

Aug-18 @ 20:00 UTC

TAF SBCF 181000Z 1812/1912 13008KT CAVOK TX23/1817Z TN11/1908Z
Wind
  • 130° at 8 KTS
Cloud Levels
  • No significant clouds

Aug-18@
20:00 UTC

Aug-18 @ 20:00 UTC

Aug-19@
02:00 UTC

Aug-19 @ 02:00 UTC

BECMG 1820/1822 03003KT 9999 FEW025

Becoming

Becoming Conditions expected by Sun, Aug 18, 2019 @ 22:00 UTC

Wind
  • 030° at 3 KTS
Cloud Levels
  • Few at 2,500' AGL

Aug-19@
02:00 UTC

Aug-19 @ 02:00 UTC

Aug-19@
08:00 UTC

Aug-19 @ 08:00 UTC

BECMG 1902/1904 27006KT CAVOK

Becoming

Becoming Conditions expected by Mon, Aug 19, 2019 @ 04:00 UTC

Wind
  • 270° at 6 KTS
Conditions
No significant weather
Cloud Levels
  • No significant clouds

Aug-19@
08:00 UTC

Aug-19 @ 08:00 UTC

Aug-19@
12:00 UTC

Aug-19 @ 12:00 UTC

BECMG 1908/1910 19005KT RMK PCQ

Becoming

Becoming Conditions expected by Mon, Aug 19, 2019 @ 10:00 UTC

Wind
  • 190° at 5 KTS
Conditions
No significant weather
Cloud Levels
  • No significant clouds